Pires Coelho — CUPM6 — position and weather

sailwx.info

Track history (hours):
 
Tides and Currents Weather Stations Pressure Air Temp Water Temp Dewpoint Dewpoint Depression Visibility Wind Speed Wind Dir Waves Ship Positions

Pires Coelho

Last reported at 2016-Jun-30 19:18 UTC. Time now 2016-Jul-01 04:33 UTC.
Position N 37°08' W 008°32'.

Length 27 m.

Type: Ship. MMSI: 263236000.

Date/timePositionNaut miles runAvg speedWind from/ knotsBaromVisibWave heightAir tempDewpointWater temp
2016-Jun-30 19:18N 37°08' W 008°32'0 0.1
2016-Jun-30 18:28N 37°08' W 008°32'8 9.0
2016-Jun-30 17:33N 36°60' W 008°30'13 4.1
2016-Jun-30 14:19N 36°49' W 008°20'0 0.6
2016-Jun-30 13:33N 36°49' W 008°20'  
2016-Jun-27 15:32N 36°52' W 008°05'3 0.3
2016-Jun-27 06:29N 36°51' W 008°01'3 3.1
2016-Jun-27 05:29N 36°52' W 007°58'10 5.0
2016-Jun-27 03:25N 36°57' W 008°09'9 9.3
2016-Jun-27 02:30N 37°01' W 008°19'9 9.4
2016-Jun-27 01:33N 37°05' W 008°28'4 3.2
2016-Jun-27 00:18N 37°08' W 008°32'0 0.0
2016-Jun-26 23:33N 37°08' W 008°32'0 0.0
2016-Jun-26 22:29N 37°08' W 008°32'0 0.0
2016-Jun-26 21:26N 37°08' W 008°32'0 0.0
2016-Jun-26 20:28N 37°08' W 008°32'0 0.0
2016-Jun-26 19:29N 37°08' W 008°32'0 0.0
2016-Jun-26 18:25N 37°08' W 008°32'0 0.0
2016-Jun-26 17:27N 37°08' W 008°32'0 0.0
2016-Jun-26 16:30N 37°08' W 008°32'1 1.6
2016-Jun-26 15:33N 37°07' W 008°32'10 9.7
2016-Jun-26 14:33N 36°59' W 008°40'13 0.6
2016-Jun-25 16:08N 36°47' W 008°34'11 0.5
2016-Jun-24 16:32N 36°48' W 008°47'2 0.2
2016-Jun-24 01:15N 36°48' W 008°51'2 3.0
2016-Jun-24 00:33N 36°48' W 008°48'24 1.0
2016-Jun-23 01:07N 37°08' W 008°32'6 7.7
2016-Jun-23 00:18N 37°03' W 008°27'810.1
2016-Jun-22 23:30N 36°59' W 008°18'9 9.6
2016-Jun-22 22:33N 36°55' W 008°08'9 9.2
2016-Jun-22 21:33N 36°50' W 007°58'1 0.7
2016-Jun-22 20:34N 36°50' W 007°58'3 3.0
2016-Jun-22 19:31N 36°49' W 008°01'0 0.3
2016-Jun-22 18:07N 36°49' W 008°01'2 2.9
2016-Jun-22 17:33N 36°50' W 007°59'2 1.8
2016-Jun-22 16:33N 36°50' W 007°57'2 2.0
2016-Jun-22 15:34N 36°50' W 007°59'4 2.9
2016-Jun-22 14:17N 36°49' W 008°04'3 2.9
2016-Jun-22 13:12N 36°48' W 008°07'2 2.9
2016-Jun-22 12:33N 36°48' W 008°10'3 3.3
2016-Jun-22 11:33N 36°49' W 008°13'2 2.0
2016-Jun-22 10:33N 36°49' W 008°11'3 2.8
2016-Jun-22 09:23N 36°50' W 008°06'2 2.8
2016-Jun-22 08:34N 36°51' W 008°04'0 0.3
2016-Jun-22 07:34N 36°52' W 008°04'3 2.5
2016-Jun-22 06:33N 36°51' W 008°02'3 3.0
2016-Jun-22 05:34N 36°52' W 007°58'2 1.8
2016-Jun-22 04:33N 36°53' W 007°59'9 9.2
2016-Jun-22 03:33N 36°57' W 008°09'11 9.2
2016-Jun-22 02:24N 37°02' W 008°21'6 1.2
2016-Jun-21 21:23N 37°04' W 008°28'11 9.6
2016-Jun-21 20:14N 36°57' W 008°18'6 9.4
2016-Jun-21 19:33N 36°53' W 008°12'7 5.4
2016-Jun-21 18:14N 36°48' W 008°05'2 2.8
2016-Jun-21 17:34N 36°49' W 008°03'3 3.0
2016-Jun-21 16:33N 36°50' W 007°59'3 2.9
2016-Jun-21 15:33N 36°51' W 007°56'3 2.8
2016-Jun-21 14:33N 36°52' W 007°53'8 8.0
2016-Jun-21 13:33N 36°49' W 007°43'1 1.2
2016-Jun-21 12:34N 36°49' W 007°42'3 2.8
2016-Jun-21 11:33N 36°51' W 007°39'14 2.1
2016-Jun-21 04:34N 36°50' W 007°57'3 2.9
2016-Jun-21 03:34N 36°49' W 008°00'3 2.8
2016-Jun-21 02:33N 36°49' W 008°04'3 3.1
2016-Jun-21 01:32N 36°50' W 007°60'3 3.2
2016-Jun-21 00:33N 36°51' W 007°56'2 1.9
2016-Jun-20 23:33N 36°50' W 007°58'3 2.9
2016-Jun-20 22:33N 36°49' W 008°02'3 2.9
2016-Jun-20 21:33N 36°48' W 008°05'2 1.4
2016-Jun-20 20:21N 36°50' W 008°06'2 1.9
2016-Jun-20 19:34N 36°51' W 008°05'  
Track history (hours):
 
Tides and Currents Weather Stations Pressure Air Temp Water Temp Dewpoint Dewpoint Depression Visibility Wind Speed Wind Dir Waves Ship Positions

Pires Coelho

Last reported at 2016-Jun-30 19:18 UTC. Time now 2016-Jul-01 04:33 UTC.
Position N 37°08' W 008°32'.

Length 27 m.

Type: Ship. MMSI: 263236000.

Date/timePositionNaut miles runAvg speedWind from/ knotsBaromVisibWave heightAir tempDewpointWater temp
2016-Jun-30 19:18N 37°08' W 008°32'0 0.1
2016-Jun-30 18:28N 37°08' W 008°32'8 9.0
2016-Jun-30 17:33N 36°60' W 008°30'13 4.1
2016-Jun-30 14:19N 36°49' W 008°20'0 0.6
2016-Jun-30 13:33N 36°49' W 008°20'  
2016-Jun-27 15:32N 36°52' W 008°05'3 0.3
2016-Jun-27 06:29N 36°51' W 008°01'3 3.1
2016-Jun-27 05:29N 36°52' W 007°58'10 5.0
2016-Jun-27 03:25N 36°57' W 008°09'9 9.3
2016-Jun-27 02:30N 37°01' W 008°19'9 9.4
2016-Jun-27 01:33N 37°05' W 008°28'4 3.2
2016-Jun-27 00:18N 37°08' W 008°32'0 0.0
2016-Jun-26 23:33N 37°08' W 008°32'0 0.0
2016-Jun-26 22:29N 37°08' W 008°32'0 0.0
2016-Jun-26 21:26N 37°08' W 008°32'0 0.0
2016-Jun-26 20:28N 37°08' W 008°32'0 0.0
2016-Jun-26 19:29N 37°08' W 008°32'0 0.0
2016-Jun-26 18:25N 37°08' W 008°32'0 0.0
2016-Jun-26 17:27N 37°08' W 008°32'0 0.0
2016-Jun-26 16:30N 37°08' W 008°32'1 1.6
2016-Jun-26 15:33N 37°07' W 008°32'10 9.7
2016-Jun-26 14:33N 36°59' W 008°40'13 0.6
2016-Jun-25 16:08N 36°47' W 008°34'11 0.5
2016-Jun-24 16:32N 36°48' W 008°47'2 0.2
2016-Jun-24 01:15N 36°48' W 008°51'2 3.0
2016-Jun-24 00:33N 36°48' W 008°48'24 1.0
2016-Jun-23 01:07N 37°08' W 008°32'6 7.7
2016-Jun-23 00:18N 37°03' W 008°27'810.1
2016-Jun-22 23:30N 36°59' W 008°18'9 9.6
2016-Jun-22 22:33N 36°55' W 008°08'9 9.2
2016-Jun-22 21:33N 36°50' W 007°58'1 0.7
2016-Jun-22 20:34N 36°50' W 007°58'3 3.0
2016-Jun-22 19:31N 36°49' W 008°01'0 0.3
2016-Jun-22 18:07N 36°49' W 008°01'2 2.9
2016-Jun-22 17:33N 36°50' W 007°59'2 1.8
2016-Jun-22 16:33N 36°50' W 007°57'2 2.0
2016-Jun-22 15:34N 36°50' W 007°59'4 2.9
2016-Jun-22 14:17N 36°49' W 008°04'3 2.9
2016-Jun-22 13:12N 36°48' W 008°07'2 2.9
2016-Jun-22 12:33N 36°48' W 008°10'3 3.3
2016-Jun-22 11:33N 36°49' W 008°13'2 2.0
2016-Jun-22 10:33N 36°49' W 008°11'3 2.8
2016-Jun-22 09:23N 36°50' W 008°06'2 2.8
2016-Jun-22 08:34N 36°51' W 008°04'0 0.3
2016-Jun-22 07:34N 36°52' W 008°04'3 2.5
2016-Jun-22 06:33N 36°51' W 008°02'3 3.0
2016-Jun-22 05:34N 36°52' W 007°58'2 1.8
2016-Jun-22 04:33N 36°53' W 007°59'9 9.2
2016-Jun-22 03:33N 36°57' W 008°09'11 9.2
2016-Jun-22 02:24N 37°02' W 008°21'6 1.2
2016-Jun-21 21:23N 37°04' W 008°28'11 9.6
2016-Jun-21 20:14N 36°57' W 008°18'6 9.4
2016-Jun-21 19:33N 36°53' W 008°12'7 5.4
2016-Jun-21 18:14N 36°48' W 008°05'2 2.8
2016-Jun-21 17:34N 36°49' W 008°03'3 3.0
2016-Jun-21 16:33N 36°50' W 007°59'3 2.9
2016-Jun-21 15:33N 36°51' W 007°56'3 2.8
2016-Jun-21 14:33N 36°52' W 007°53'8 8.0
2016-Jun-21 13:33N 36°49' W 007°43'1 1.2
2016-Jun-21 12:34N 36°49' W 007°42'3 2.8
2016-Jun-21 11:33N 36°51' W 007°39'14 2.1
2016-Jun-21 04:34N 36°50' W 007°57'3 2.9
2016-Jun-21 03:34N 36°49' W 008°00'3 2.8
2016-Jun-21 02:33N 36°49' W 008°04'3 3.1
2016-Jun-21 01:32N 36°50' W 007°60'3 3.2
2016-Jun-21 00:33N 36°51' W 007°56'2 1.9
2016-Jun-20 23:33N 36°50' W 007°58'3 2.9
2016-Jun-20 22:33N 36°49' W 008°02'3 2.9
2016-Jun-20 21:33N 36°48' W 008°05'2 1.4
2016-Jun-20 20:21N 36°50' W 008°06'2 1.9
2016-Jun-20 19:34N 36°51' W 008°05'  

Dump ship's entire track history